sensor_id;sensor_type;location;lat;lon;timestamp;pressure;altitude;pressure_sealevel;temperature;humidity
78170;BME280;67412;49.892;14.490;2023-07-29T00:01:18;96753.09;;;18.43;86.74
78170;BME280;67412;49.892;14.490;2023-07-29T00:03:43;96752.16;;;18.44;86.15
78170;BME280;67412;49.892;14.490;2023-07-29T00:06:09;96752.00;;;18.47;86.14
78170;BME280;67412;49.892;14.490;2023-07-29T00:08:34;96750.31;;;18.46;85.92
78170;BME280;67412;49.892;14.490;2023-07-29T00:11:00;96752.59;;;18.52;85.71
78170;BME280;67412;49.892;14.490;2023-07-29T00:13:25;96748.56;;;18.47;86.40
78170;BME280;67412;49.892;14.490;2023-07-29T00:15:53;96743.00;;;18.37;86.83
78170;BME280;67412;49.892;14.490;2023-07-29T00:18:19;96747.22;;;18.40;86.72
78170;BME280;67412;49.892;14.490;2023-07-29T00:20:44;96743.16;;;18.34;86.99
78170;BME280;67412;49.892;14.490;2023-07-29T00:23:10;96739.72;;;18.33;87.36
78170;BME280;67412;49.892;14.490;2023-07-29T00:25:36;96741.50;;;18.49;86.75
78170;BME280;67412;49.892;14.490;2023-07-29T00:28:01;96742.56;;;18.45;87.00
78170;BME280;67412;49.892;14.490;2023-07-29T00:30:26;96738.22;;;18.45;86.95
78170;BME280;67412;49.892;14.490;2023-07-29T00:32:51;96741.75;;;18.44;87.26
78170;BME280;67412;49.892;14.490;2023-07-29T00:35:17;96739.72;;;18.33;87.96
78170;BME280;67412;49.892;14.490;2023-07-29T00:37:42;96747.22;;;18.40;88.06
78170;BME280;67412;49.892;14.490;2023-07-29T00:40:15;96740.50;;;18.35;87.99
78170;BME280;67412;49.892;14.490;2023-07-29T00:42:44;96747.53;;;18.33;88.10
78170;BME280;67412;49.892;14.490;2023-07-29T00:45:09;96733.28;;;18.25;88.94
78170;BME280;67412;49.892;14.490;2023-07-29T00:47:35;96739.47;;;18.22;89.25
78170;BME280;67412;49.892;14.490;2023-07-29T00:50:00;96746.19;;;18.26;88.99
78170;BME280;67412;49.892;14.490;2023-07-29T00:52:26;96736.63;;;18.27;89.42
78170;BME280;67412;49.892;14.490;2023-07-29T00:54:51;96748.03;;;18.24;89.78
78170;BME280;67412;49.892;14.490;2023-07-29T00:57:17;96742.66;;;18.27;89.09
78170;BME280;67412;49.892;14.490;2023-07-29T00:59:44;96739.81;;;18.32;89.18
78170;BME280;67412;49.892;14.490;2023-07-29T01:02:09;96755.91;;;18.23;89.28
78170;BME280;67412;49.892;14.490;2023-07-29T01:04:35;96750.03;;;18.19;89.76
78170;BME280;67412;49.892;14.490;2023-07-29T01:09:43;96741.78;;;18.11;90.31
78170;BME280;67412;49.892;14.490;2023-07-29T01:17:46;96735.78;;;18.11;91.13
78170;BME280;67412;49.892;14.490;2023-07-29T01:20:14;96734.34;;;18.05;91.07
78170;BME280;67412;49.892;14.490;2023-07-29T01:22:41;96742.31;;;18.02;91.56
78170;BME280;67412;49.892;14.490;2023-07-29T01:25:07;96733.50;;;18.05;91.20
78170;BME280;67412;49.892;14.490;2023-07-29T01:27:32;96740.38;;;18.06;91.26
78170;BME280;67412;49.892;14.490;2023-07-29T01:29:58;96743.03;;;18.04;91.62
78170;BME280;67412;49.892;14.490;2023-07-29T01:37:37;96742.59;;;17.96;91.87
78170;BME280;67412;49.892;14.490;2023-07-29T01:40:06;96741.94;;;17.93;91.99
78170;BME280;67412;49.892;14.490;2023-07-29T01:42:33;96741.09;;;17.92;91.87
78170;BME280;67412;49.892;14.490;2023-07-29T01:44:59;96730.84;;;17.89;91.49
78170;BME280;67412;49.892;14.490;2023-07-29T01:47:25;96739.44;;;17.91;91.46
78170;BME280;67412;49.892;14.490;2023-07-29T01:49:50;96735.22;;;17.88;91.43
78170;BME280;67412;49.892;14.490;2023-07-29T01:52:15;96733.78;;;17.83;91.79
78170;BME280;67412;49.892;14.490;2023-07-29T01:54:41;96737.22;;;17.83;91.92
78170;BME280;67412;49.892;14.490;2023-07-29T01:57:06;96734.69;;;17.82;91.74
78170;BME280;67412;49.892;14.490;2023-07-29T01:59:31;96729.84;;;17.76;92.31
78170;BME280;67412;49.892;14.490;2023-07-29T02:01:56;96735.09;;;17.74;92.15
78170;BME280;67412;49.892;14.490;2023-07-29T02:04:22;96732.34;;;17.77;91.47
78170;BME280;67412;49.892;14.490;2023-07-29T02:06:47;96730.81;;;17.73;91.97
78170;BME280;67412;49.892;14.490;2023-07-29T02:09:12;96741.97;;;17.75;91.21
78170;BME280;67412;49.892;14.490;2023-07-29T02:11:38;96740.63;;;17.68;91.64
78170;BME280;67412;49.892;14.490;2023-07-29T02:14:03;96743.22;;;17.68;91.16
78170;BME280;67412;49.892;14.490;2023-07-29T02:16:28;96736.34;;;17.67;91.23
78170;BME280;67412;49.892;14.490;2023-07-29T02:18:54;96744.19;;;17.66;91.15
78170;BME280;67412;49.892;14.490;2023-07-29T02:21:19;96743.28;;;17.67;90.84
78170;BME280;67412;49.892;14.490;2023-07-29T02:23:45;96734.97;;;17.60;91.35
78170;BME280;67412;49.892;14.490;2023-07-29T02:26:10;96739.31;;;17.60;91.31
78170;BME280;67412;49.892;14.490;2023-07-29T02:28:36;96741.53;;;17.50;91.63
78170;BME280;67412;49.892;14.490;2023-07-29T02:31:20;96733.06;;;17.47;92.34
78170;BME280;67412;49.892;14.490;2023-07-29T02:33:46;96735.03;;;17.42;92.13
78170;BME280;67412;49.892;14.490;2023-07-29T02:36:12;96732.44;;;17.42;92.51
78170;BME280;67412;49.892;14.490;2023-07-29T02:38:38;96728.00;;;17.44;92.18
78170;BME280;67412;49.892;14.490;2023-07-29T02:41:04;96733.28;;;17.42;91.95
78170;BME280;67412;49.892;14.490;2023-07-29T02:43:29;96732.91;;;17.32;92.62
78170;BME280;67412;49.892;14.490;2023-07-29T02:45:54;96729.47;;;17.32;92.42
78170;BME280;67412;49.892;14.490;2023-07-29T02:48:20;96730.41;;;17.31;92.36
78170;BME280;67412;49.892;14.490;2023-07-29T02:50:45;96729.94;;;17.23;92.65
78170;BME280;67412;49.892;14.490;2023-07-29T02:53:10;96730.16;;;17.18;92.76
78170;BME280;67412;49.892;14.490;2023-07-29T02:55:39;96737.94;;;17.18;92.88
78170;BME280;67412;49.892;14.490;2023-07-29T02:58:05;96736.41;;;17.14;93.21
78170;BME280;67412;49.892;14.490;2023-07-29T03:00:31;96736.25;;;17.17;92.89
78170;BME280;67412;49.892;14.490;2023-07-29T03:02:58;96739.31;;;17.25;92.76
78170;BME280;67412;49.892;14.490;2023-07-29T03:05:24;96741.63;;;17.31;92.71
78170;BME280;67412;49.892;14.490;2023-07-29T03:07:49;96745.19;;;17.29;92.68
78170;BME280;67412;49.892;14.490;2023-07-29T03:10:15;96753.59;;;17.34;92.31
78170;BME280;67412;49.892;14.490;2023-07-29T03:12:40;96741.75;;;17.46;91.41
78170;BME280;67412;49.892;14.490;2023-07-29T03:15:06;96738.25;;;17.47;91.53
78170;BME280;67412;49.892;14.490;2023-07-29T03:17:31;96741.91;;;17.43;91.95
78170;BME280;67412;49.892;14.490;2023-07-29T03:19:57;96742.66;;;17.45;92.31
78170;BME280;67412;49.892;14.490;2023-07-29T03:22:22;96748.94;;;17.40;92.07
78170;BME280;67412;49.892;14.490;2023-07-29T03:24:47;96746.97;;;17.46;91.85
78170;BME280;67412;49.892;14.490;2023-07-29T03:27:13;96746.97;;;17.46;92.27
78170;BME280;67412;49.892;14.490;2023-07-29T03:29:40;96744.81;;;17.54;91.65
78170;BME280;67412;49.892;14.490;2023-07-29T03:32:05;96762.88;;;17.57;91.50
78170;BME280;67412;49.892;14.490;2023-07-29T03:34:31;96756.84;;;17.55;91.16
78170;BME280;67412;49.892;14.490;2023-07-29T03:36:57;96751.75;;;17.53;91.29
78170;BME280;67412;49.892;14.490;2023-07-29T03:39:22;96750.91;;;17.53;91.76
78170;BME280;67412;49.892;14.490;2023-07-29T03:41:48;96741.59;;;17.49;91.82
78170;BME280;67412;49.892;14.490;2023-07-29T03:44:13;96740.06;;;17.45;92.57
78170;BME280;67412;49.892;14.490;2023-07-29T03:46:38;96745.19;;;17.46;92.71
78170;BME280;67412;49.892;14.490;2023-07-29T03:49:04;96743.56;;;17.44;93.37
78170;BME280;67412;49.892;14.490;2023-07-29T03:51:29;96737.56;;;17.43;93.31
78170;BME280;67412;49.892;14.490;2023-07-29T03:53:54;96749.94;;;17.38;93.87
78170;BME280;67412;49.892;14.490;2023-07-29T03:56:20;96743.22;;;17.34;93.90
78170;BME280;67412;49.892;14.490;2023-07-29T03:58:46;96752.91;;;17.30;94.04
78170;BME280;67412;49.892;14.490;2023-07-29T04:01:13;96745.72;;;17.18;94.63
78170;BME280;67412;49.892;14.490;2023-07-29T04:03:38;96742.53;;;17.13;94.36
78170;BME280;67412;49.892;14.490;2023-07-29T04:06:04;96747.16;;;17.07;95.55
78170;BME280;67412;49.892;14.490;2023-07-29T04:08:29;96742.91;;;17.06;95.78
78170;BME280;67412;49.892;14.490;2023-07-29T04:10:55;96747.94;;;17.09;96.34
78170;BME280;67412;49.892;14.490;2023-07-29T04:13:20;96741.59;;;17.14;95.55
78170;BME280;67412;49.892;14.490;2023-07-29T04:15:45;96740.53;;;17.18;95.96
78170;BME280;67412;49.892;14.490;2023-07-29T04:18:11;96742.38;;;17.16;96.47
78170;BME280;67412;49.892;14.490;2023-07-29T04:20:36;96742.13;;;17.21;95.74
78170;BME280;67412;49.892;14.490;2023-07-29T04:23:02;96743.91;;;17.20;95.79
78170;BME280;67412;49.892;14.490;2023-07-29T04:25:27;96751.69;;;17.20;96.11
78170;BME280;67412;49.892;14.490;2023-07-29T04:27:53;96750.63;;;17.24;95.80
78170;BME280;67412;49.892;14.490;2023-07-29T04:30:18;96758.03;;;17.32;95.73
78170;BME280;67412;49.892;14.490;2023-07-29T04:32:43;96755.13;;;17.38;95.58
78170;BME280;67412;49.892;14.490;2023-07-29T04:35:10;96759.94;;;17.46;94.49
78170;BME280;67412;49.892;14.490;2023-07-29T04:37:35;96756.44;;;17.47;94.40
78170;BME280;67412;49.892;14.490;2023-07-29T04:40:00;96763.84;;;17.54;93.85
78170;BME280;67412;49.892;14.490;2023-07-29T04:42:26;96766.16;;;17.60;94.37
78170;BME280;67412;49.892;14.490;2023-07-29T04:44:51;96766.66;;;17.67;93.08
78170;BME280;67412;49.892;14.490;2023-07-29T04:47:16;96763.09;;;17.69;93.10
78170;BME280;67412;49.892;14.490;2023-07-29T04:49:41;96754.97;;;17.75;92.61
78170;BME280;67412;49.892;14.490;2023-07-29T04:52:07;96759.94;;;17.80;92.09
78170;BME280;67412;49.892;14.490;2023-07-29T04:54:32;96764.06;;;17.84;91.96
78170;BME280;67412;49.892;14.490;2023-07-29T04:56:58;96767.41;;;17.86;91.87
78170;BME280;67412;49.892;14.490;2023-07-29T04:59:23;96768.25;;;17.86;91.71
78170;BME280;67412;49.892;14.490;2023-07-29T05:01:48;96766.56;;;17.85;91.56
78170;BME280;67412;49.892;14.490;2023-07-29T05:04:14;96770.16;;;17.83;92.25
78170;BME280;67412;49.892;14.490;2023-07-29T05:06:39;96767.13;;;17.75;91.96
78170;BME280;67412;49.892;14.490;2023-07-29T05:09:18;96769.66;;;17.92;91.06
78170;BME280;67412;49.892;14.490;2023-07-29T05:11:45;96776.47;;;18.27;90.31
78170;BME280;67412;49.892;14.490;2023-07-29T05:14:13;96773.47;;;18.51;88.87
78170;BME280;67412;49.892;14.490;2023-07-29T05:16:38;96774.25;;;18.53;88.47
78170;BME280;67412;49.892;14.490;2023-07-29T05:19:04;96773.94;;;18.59;88.99
78170;BME280;67412;49.892;14.490;2023-07-29T05:21:29;96765.06;;;18.46;87.86
78170;BME280;67412;49.892;14.490;2023-07-29T05:23:55;96763.16;;;18.49;88.61
78170;BME280;67412;49.892;14.490;2023-07-29T05:26:20;96771.41;;;18.73;86.94
78170;BME280;67412;49.892;14.490;2023-07-29T05:28:45;96764.44;;;18.89;86.66
78170;BME280;67412;49.892;14.490;2023-07-29T05:31:11;96775.75;;;19.04;85.55
78170;BME280;67412;49.892;14.490;2023-07-29T05:33:36;96789.50;;;19.21;84.99
78170;BME280;67412;49.892;14.490;2023-07-29T05:36:02;96774.34;;;19.28;84.09
78170;BME280;67412;49.892;14.490;2023-07-29T05:38:27;96782.34;;;19.25;83.67
78170;BME280;67412;49.892;14.490;2023-07-29T05:40:52;96776.09;;;19.27;84.36
78170;BME280;67412;49.892;14.490;2023-07-29T05:43:18;96782.78;;;19.17;85.54
78170;BME280;67412;49.892;14.490;2023-07-29T05:45:43;96771.00;;;19.26;84.65
78170;BME280;67412;49.892;14.490;2023-07-29T05:48:08;96781.31;;;19.27;84.34
78170;BME280;67412;49.892;14.490;2023-07-29T05:50:33;96768.22;;;19.29;84.67
78170;BME280;67412;49.892;14.490;2023-07-29T05:52:59;96770.31;;;19.38;84.82
78170;BME280;67412;49.892;14.490;2023-07-29T05:55:24;96772.13;;;19.52;85.44
78170;BME280;67412;49.892;14.490;2023-07-29T05:57:50;96771.75;;;19.58;84.84
78170;BME280;67412;49.892;14.490;2023-07-29T06:00:15;96765.66;;;19.73;84.56
78170;BME280;67412;49.892;14.490;2023-07-29T06:02:40;96767.81;;;19.95;85.16
78170;BME280;67412;49.892;14.490;2023-07-29T06:05:06;96772.94;;;20.10;82.89
78170;BME280;67412;49.892;14.490;2023-07-29T06:07:32;96774.69;;;20.10;82.83
78170;BME280;67412;49.892;14.490;2023-07-29T06:09:59;96759.72;;;20.27;82.02
78170;BME280;67412;49.892;14.490;2023-07-29T06:12:24;96764.94;;;20.42;82.24
78170;BME280;67412;49.892;14.490;2023-07-29T06:14:49;96763.41;;;20.66;81.29
78170;BME280;67412;49.892;14.490;2023-07-29T06:17:15;96759.00;;;20.66;79.51
78170;BME280;67412;49.892;14.490;2023-07-29T06:19:40;96756.00;;;20.87;78.97
78170;BME280;67412;49.892;14.490;2023-07-29T06:22:05;96763.88;;;20.99;80.87
78170;BME280;67412;49.892;14.490;2023-07-29T06:24:31;96762.97;;;20.86;78.18
78170;BME280;67412;49.892;14.490;2023-07-29T06:26:57;96759.97;;;20.92;78.93
78170;BME280;67412;49.892;14.490;2023-07-29T06:29:22;96759.53;;;20.86;77.64
78170;BME280;67412;49.892;14.490;2023-07-29T06:31:48;96754.63;;;20.67;78.25
78170;BME280;67412;49.892;14.490;2023-07-29T06:34:13;96755.13;;;20.59;79.71
78170;BME280;67412;49.892;14.490;2023-07-29T06:36:39;96751.25;;;20.38;77.24
78170;BME280;67412;49.892;14.490;2023-07-29T06:39:04;96747.59;;;20.41;79.39
78170;BME280;67412;49.892;14.490;2023-07-29T06:41:29;96742.19;;;20.44;77.69
78170;BME280;67412;49.892;14.490;2023-07-29T06:43:55;96745.91;;;20.40;77.96
78170;BME280;67412;49.892;14.490;2023-07-29T06:46:21;96749.25;;;20.56;78.06
78170;BME280;67412;49.892;14.490;2023-07-29T06:48:46;96750.78;;;20.46;78.02
78170;BME280;67412;49.892;14.490;2023-07-29T06:51:11;96743.84;;;20.59;77.20
78170;BME280;67412;49.892;14.490;2023-07-29T06:53:37;96748.53;;;20.54;76.91
78170;BME280;67412;49.892;14.490;2023-07-29T06:56:02;96755.56;;;20.66;76.69
78170;BME280;67412;49.892;14.490;2023-07-29T06:58:28;96760.97;;;20.63;76.14
78170;BME280;67412;49.892;14.490;2023-07-29T07:00:53;96765.78;;;20.83;77.46
78170;BME280;67412;49.892;14.490;2023-07-29T07:03:18;96755.84;;;20.76;75.37
78170;BME280;67412;49.892;14.490;2023-07-29T07:05:44;96754.44;;;20.70;77.26
78170;BME280;67412;49.892;14.490;2023-07-29T07:08:09;96756.03;;;20.58;75.95
78170;BME280;67412;49.892;14.490;2023-07-29T07:10:34;96750.97;;;20.84;76.75
78170;BME280;67412;49.892;14.490;2023-07-29T07:13:00;96754.47;;;21.24;74.44
78170;BME280;67412;49.892;14.490;2023-07-29T07:15:25;96746.50;;;21.64;74.65
78170;BME280;67412;49.892;14.490;2023-07-29T07:17:51;96755.16;;;21.40;74.28
78170;BME280;67412;49.892;14.490;2023-07-29T07:20:16;96753.03;;;21.45;72.94
78170;BME280;67412;49.892;14.490;2023-07-29T07:22:41;96752.50;;;21.27;73.12
78170;BME280;67412;49.892;14.490;2023-07-29T07:25:07;96758.06;;;21.08;74.09
78170;BME280;67412;49.892;14.490;2023-07-29T07:27:32;96750.50;;;20.77;75.05
78170;BME280;67412;49.892;14.490;2023-07-29T07:29:58;96756.13;;;20.98;74.40
78170;BME280;67412;49.892;14.490;2023-07-29T07:32:23;96752.09;;;21.06;74.23
78170;BME280;67412;49.892;14.490;2023-07-29T07:34:48;96749.38;;;21.08;73.78
78170;BME280;67412;49.892;14.490;2023-07-29T07:37:14;96745.66;;;21.12;74.31
78170;BME280;67412;49.892;14.490;2023-07-29T07:39:39;96746.44;;;21.27;74.10
78170;BME280;67412;49.892;14.490;2023-07-29T07:42:05;96735.09;;;21.65;74.31
78170;BME280;67412;49.892;14.490;2023-07-29T07:44:30;96734.91;;;21.81;72.83
78170;BME280;67412;49.892;14.490;2023-07-29T07:46:56;96723.81;;;22.15;72.21
78170;BME280;67412;49.892;14.490;2023-07-29T07:49:22;96725.53;;;22.53;72.02
78170;BME280;67412;49.892;14.490;2023-07-29T07:51:47;96712.78;;;22.96;70.05
78170;BME280;67412;49.892;14.490;2023-07-29T07:54:12;96713.50;;;23.22;69.58
78170;BME280;67412;49.892;14.490;2023-07-29T07:56:38;96717.22;;;23.54;67.72
78170;BME280;67412;49.892;14.490;2023-07-29T07:59:03;96717.84;;;23.34;68.43
78170;BME280;67412;49.892;14.490;2023-07-29T08:01:34;96712.59;;;22.75;67.81
78170;BME280;67412;49.892;14.490;2023-07-29T08:04:00;96705.44;;;22.77;69.20
78170;BME280;67412;49.892;14.490;2023-07-29T08:06:26;96702.59;;;23.04;68.85
78170;BME280;67412;49.892;14.490;2023-07-29T08:08:51;96701.50;;;23.76;66.39
78170;BME280;67412;49.892;14.490;2023-07-29T08:11:16;96687.91;;;23.93;65.92
78170;BME280;67412;49.892;14.490;2023-07-29T08:13:42;96688.38;;;23.65;65.08
78170;BME280;67412;49.892;14.490;2023-07-29T08:16:07;96684.59;;;23.80;64.09
78170;BME280;67412;49.892;14.490;2023-07-29T08:18:32;96690.63;;;23.58;63.67
78170;BME280;67412;49.892;14.490;2023-07-29T08:20:59;96687.16;;;23.47;64.73
78170;BME280;67412;49.892;14.490;2023-07-29T08:23:28;96690.00;;;23.44;62.85
78170;BME280;67412;49.892;14.490;2023-07-29T08:25:56;96690.09;;;23.07;62.50
78170;BME280;67412;49.892;14.490;2023-07-29T08:28:27;96696.84;;;22.99;64.66
78170;BME280;67412;49.892;14.490;2023-07-29T08:30:52;96709.22;;;22.73;65.45
78170;BME280;67412;49.892;14.490;2023-07-29T08:33:17;96697.50;;;22.79;65.13
78170;BME280;67412;49.892;14.490;2023-07-29T08:35:43;96696.22;;;23.19;62.81
78170;BME280;67412;49.892;14.490;2023-07-29T08:38:08;96685.38;;;23.13;63.20
78170;BME280;67412;49.892;14.490;2023-07-29T08:40:34;96676.56;;;23.25;61.79
78170;BME280;67412;49.892;14.490;2023-07-29T08:43:04;96695.28;;;23.66;62.67
78170;BME280;67412;49.892;14.490;2023-07-29T08:45:33;96685.28;;;24.04;61.30
78170;BME280;67412;49.892;14.490;2023-07-29T08:48:01;96689.81;;;24.47;61.34
78170;BME280;67412;49.892;14.490;2023-07-29T08:50:28;96693.06;;;24.39;57.91
78170;BME280;67412;49.892;14.490;2023-07-29T08:52:55;96696.25;;;24.54;56.59
78170;BME280;67412;49.892;14.490;2023-07-29T08:55:20;96690.56;;;24.27;57.56
78170;BME280;67412;49.892;14.490;2023-07-29T08:57:46;96689.59;;;24.05;56.70
78170;BME280;67412;49.892;14.490;2023-07-29T09:00:12;96696.34;;;23.64;58.73
78170;BME280;67412;49.892;14.490;2023-07-29T09:02:38;96686.47;;;23.67;58.94
78170;BME280;67412;49.892;14.490;2023-07-29T09:05:04;96692.22;;;23.83;58.51
78170;BME280;67412;49.892;14.490;2023-07-29T09:07:30;96688.88;;;24.03;57.70
78170;BME280;67412;49.892;14.490;2023-07-29T09:09:55;96693.91;;;24.06;57.18
78170;BME280;67412;49.892;14.490;2023-07-29T09:12:21;96690.66;;;23.81;58.38
78170;BME280;67412;49.892;14.490;2023-07-29T09:14:51;96692.22;;;23.72;59.03
78170;BME280;67412;49.892;14.490;2023-07-29T09:17:17;96687.91;;;23.93;58.88
78170;BME280;67412;49.892;14.490;2023-07-29T09:19:42;96691.38;;;23.94;59.45
78170;BME280;67412;49.892;14.490;2023-07-29T09:22:17;96693.97;;;23.61;58.20
78170;BME280;67412;49.892;14.490;2023-07-29T09:24:43;96692.06;;;23.63;57.76
78170;BME280;67412;49.892;14.490;2023-07-29T09:27:09;96706.22;;;23.49;60.77
78170;BME280;67412;49.892;14.490;2023-07-29T09:29:35;96696.97;;;23.89;59.39
78170;BME280;67412;49.892;14.490;2023-07-29T09:32:27;96697.13;;;23.99;58.06
78170;BME280;67412;49.892;14.490;2023-07-29T09:34:52;96699.84;;;24.08;57.71
78170;BME280;67412;49.892;14.490;2023-07-29T09:37:21;96695.81;;;24.16;58.66
78170;BME280;67412;49.892;14.490;2023-07-29T09:39:47;96699.56;;;24.67;59.34
78170;BME280;67412;49.892;14.490;2023-07-29T09:42:21;96692.09;;;24.94;56.88
78170;BME280;67412;49.892;14.490;2023-07-29T09:44:49;96692.41;;;24.69;55.99
78170;BME280;67412;49.892;14.490;2023-07-29T09:47:21;96689.00;;;24.78;56.42
78170;BME280;67412;49.892;14.490;2023-07-29T09:49:47;96689.41;;;24.74;57.54
78170;BME280;67412;49.892;14.490;2023-07-29T09:52:21;96695.06;;;25.33;56.28
78170;BME280;67412;49.892;14.490;2023-07-29T09:54:47;96693.84;;;24.62;56.68
78170;BME280;67412;49.892;14.490;2023-07-29T09:57:18;96688.50;;;24.52;55.27
78170;BME280;67412;49.892;14.490;2023-07-29T09:59:56;96693.97;;;24.61;55.14
78170;BME280;67412;49.892;14.490;2023-07-29T10:02:22;96695.75;;;24.60;56.47
78170;BME280;67412;49.892;14.490;2023-07-29T10:04:48;96693.63;;;24.54;55.63
78170;BME280;67412;49.892;14.490;2023-07-29T10:07:14;96692.88;;;24.74;55.09
78170;BME280;67412;49.892;14.490;2023-07-29T10:09:41;96685.00;;;24.74;56.25
78170;BME280;67412;49.892;14.490;2023-07-29T10:12:07;96679.69;;;24.96;53.89
78170;BME280;67412;49.892;14.490;2023-07-29T10:14:33;96676.50;;;25.14;54.32
78170;BME280;67412;49.892;14.490;2023-07-29T10:17:00;96674.59;;;25.16;54.22
78170;BME280;67412;49.892;14.490;2023-07-29T10:19:25;96672.16;;;25.44;54.36
78170;BME280;67412;49.892;14.490;2023-07-29T10:21:52;96671.84;;;25.59;53.71
78170;BME280;67412;49.892;14.490;2023-07-29T10:24:22;96669.97;;;25.29;53.31
78170;BME280;67412;49.892;14.490;2023-07-29T10:26:57;96676.13;;;24.86;54.22
78170;BME280;67412;49.892;14.490;2023-07-29T10:29:23;96677.91;;;24.32;55.61
78170;BME280;67412;49.892;14.490;2023-07-29T10:31:52;96662.81;;;24.99;54.70
78170;BME280;67412;49.892;14.490;2023-07-29T10:34:18;96659.41;;;25.61;54.44
78170;BME280;67412;49.892;14.490;2023-07-29T10:36:46;96651.69;;;25.99;52.80
78170;BME280;67412;49.892;14.490;2023-07-29T10:39:12;96649.03;;;25.89;52.70
78170;BME280;67412;49.892;14.490;2023-07-29T10:41:58;96638.03;;;26.74;52.05
78170;BME280;67412;49.892;14.490;2023-07-29T10:49:40;96648.88;;;25.19;53.68
78170;BME280;67412;49.892;14.490;2023-07-29T10:52:06;96646.97;;;24.78;53.45
78170;BME280;67412;49.892;14.490;2023-07-29T10:54:42;96642.09;;;24.42;53.67
78170;BME280;67412;49.892;14.490;2023-07-29T10:57:12;96649.72;;;24.12;55.41
78170;BME280;67412;49.892;14.490;2023-07-29T10:59:38;96671.94;;;23.85;57.41
78170;BME280;67412;49.892;14.490;2023-07-29T11:02:12;96674.25;;;22.74;64.99
78170;BME280;67412;49.892;14.490;2023-07-29T11:04:49;96672.34;;;21.65;71.37
78170;BME280;67412;49.892;14.490;2023-07-29T11:09:58;96679.53;;;21.24;77.91
78170;BME280;67412;49.892;14.490;2023-07-29T11:15:17;96694.06;;;21.28;74.13
78170;BME280;67412;49.892;14.490;2023-07-29T11:17:51;96685.81;;;21.34;74.10
78170;BME280;67412;49.892;14.490;2023-07-29T11:20:19;96684.66;;;21.13;76.31
78170;BME280;67412;49.892;14.490;2023-07-29T11:22:45;96708.84;;;21.02;77.36
78170;BME280;67412;49.892;14.490;2023-07-29T11:25:12;96750.00;;;20.58;79.93
78170;BME280;67412;49.892;14.490;2023-07-29T11:27:39;96852.59;;;18.47;88.21
78170;BME280;67412;49.892;14.490;2023-07-29T11:30:07;96805.38;;;16.65;96.06
78170;BME280;67412;49.892;14.490;2023-07-29T11:32:37;96804.63;;;16.24;95.20
78170;BME280;67412;49.892;14.490;2023-07-29T11:35:07;96793.97;;;15.93;96.49
78170;BME280;67412;49.892;14.490;2023-07-29T11:37:34;96767.88;;;15.77;98.72
78170;BME280;67412;49.892;14.490;2023-07-29T11:40:00;96760.63;;;15.85;98.64
78170;BME280;67412;49.892;14.490;2023-07-29T11:42:26;96759.31;;;15.95;99.33
78170;BME280;67412;49.892;14.490;2023-07-29T11:44:52;96738.94;;;16.07;98.10
78170;BME280;67412;49.892;14.490;2023-07-29T11:47:18;96724.38;;;16.23;96.82
78170;BME280;67412;49.892;14.490;2023-07-29T11:49:43;96722.81;;;16.37;97.65
78170;BME280;67412;49.892;14.490;2023-07-29T11:52:09;96719.88;;;16.64;97.34
78170;BME280;67412;49.892;14.490;2023-07-29T11:54:36;96711.00;;;16.86;96.36
78170;BME280;67412;49.892;14.490;2023-07-29T11:57:04;96708.25;;;17.07;93.23
78170;BME280;67412;49.892;14.490;2023-07-29T11:59:32;96695.50;;;17.19;89.66
78170;BME280;67412;49.892;14.490;2023-07-29T12:01:58;96679.31;;;17.31;90.37
78170;BME280;67412;49.892;14.490;2023-07-29T12:04:25;96687.22;;;17.46;90.04
78170;BME280;67412;49.892;14.490;2023-07-29T12:06:51;96695.16;;;17.60;91.28
78170;BME280;67412;49.892;14.490;2023-07-29T12:09:16;96683.06;;;17.76;93.45
78170;BME280;67412;49.892;14.490;2023-07-29T12:11:42;96684.25;;;17.86;92.20
78170;BME280;67412;49.892;14.490;2023-07-29T12:14:07;96684.84;;;17.91;93.30
78170;BME280;67412;49.892;14.490;2023-07-29T12:16:42;96693.16;;;17.98;91.90
78170;BME280;67412;49.892;14.490;2023-07-29T12:19:08;96692.06;;;18.02;92.46
78170;BME280;67412;49.892;14.490;2023-07-29T12:21:33;96691.59;;;18.11;91.85
78170;BME280;67412;49.892;14.490;2023-07-29T12:24:00;96690.88;;;18.07;91.10
78170;BME280;67412;49.892;14.490;2023-07-29T12:26:28;96698.53;;;18.10;90.23
78170;BME280;67412;49.892;14.490;2023-07-29T12:28:54;96683.38;;;18.03;91.18
78170;BME280;67412;49.892;14.490;2023-07-29T12:31:19;96686.53;;;18.08;91.45
78170;BME280;67412;49.892;14.490;2023-07-29T12:33:44;96686.81;;;18.03;91.02
78170;BME280;67412;49.892;14.490;2023-07-29T12:36:10;96693.47;;;18.07;92.69
78170;BME280;67412;49.892;14.490;2023-07-29T12:38:35;96671.22;;;18.03;91.78
78170;BME280;67412;49.892;14.490;2023-07-29T12:41:01;96668.53;;;18.36;93.05
78170;BME280;67412;49.892;14.490;2023-07-29T12:43:26;96670.84;;;18.72;92.92
78170;BME280;67412;49.892;14.490;2023-07-29T12:45:52;96664.91;;;19.00;90.90
78170;BME280;67412;49.892;14.490;2023-07-29T12:48:17;96668.25;;;19.02;92.84
78170;BME280;67412;49.892;14.490;2023-07-29T12:50:43;96670.59;;;19.20;91.20
78170;BME280;67412;49.892;14.490;2023-07-29T12:53:09;96670.78;;;19.61;92.37
78170;BME280;67412;49.892;14.490;2023-07-29T12:55:37;96662.03;;;19.76;89.80
78170;BME280;67412;49.892;14.490;2023-07-29T12:58:02;96659.31;;;20.06;90.04
78170;BME280;67412;49.892;14.490;2023-07-29T13:00:28;96656.00;;;19.90;92.90
78170;BME280;67412;49.892;14.490;2023-07-29T13:02:54;96670.03;;;19.88;89.52
78170;BME280;67412;49.892;14.490;2023-07-29T13:05:19;96652.47;;;20.18;89.93
78170;BME280;67412;49.892;14.490;2023-07-29T13:07:45;96656.50;;;20.77;88.54
78170;BME280;67412;49.892;14.490;2023-07-29T13:10:11;96654.56;;;21.20;85.98